<?xml version="1.0" encoding="UTF-8" standalone="no" ?>
<gpx xmlns="http://www.topografix.com/GPX/1/1" xmlns:xsi="http://www.w3.org/2001/XMLSchema-instance" xsi:schemaLocation="http://www.topografix.com/GPX/1/1 http://www.topografix.com/GPX/1/1/gpx.xsd" version="1.1" creator="VisuGPX - https://www.visugpx.com">
  <metadata>
    <name>Boucle Col de Cabre</name>
    <desc><![CDATA[Boucle à partir du Col de Cabre, quelques passages à faire à pied: la dernière partie de la montée du départ puis un passage rocheux un peu après, les descentes avant Lesches et Beaurieres. Possibilité de suivre le tracé de "la Drôme à cheval" entre le col "Gargas et le col "Lorial" mais ces tracés ne sont pas disponibles!!!!!!!!!!]]></desc>
  </metadata>
  <trk>
    <name><![CDATA[OR-7872059--Haute-Beaume (La):Cabre Beaurieres]]></name>
    <trkseg>
      <trkpt lat="44.54956" lon="5.5979">
        <ele>1179</ele>
        <time>2017-09-02T18:58:14Z</time>
      </trkpt>
      <trkpt lat="44.55073" lon="5.59713">
        <ele>1202</ele>
        <time>2017-09-02T19:00:14Z</time>
      </trkpt>
      <trkpt lat="44.551" lon="5.59622">
        <ele>1195</ele>
        <time>2017-09-02T19:02:14Z</time>
      </trkpt>
      <trkpt lat="44.55241" lon="5.59589">
        <ele>1218</ele>
        <time>2017-09-02T19:04:14Z</time>
      </trkpt>
      <trkpt lat="44.55387" lon="5.59557">
        <ele>1254</ele>
        <time>2017-09-02T19:06:14Z</time>
      </trkpt>
      <trkpt lat="44.55467" lon="5.59531">
        <ele>1268</ele>
        <time>2017-09-02T19:08:14Z</time>
      </trkpt>
      <trkpt lat="44.55546" lon="5.59615">
        <ele>1309</ele>
        <time>2017-09-02T19:10:14Z</time>
      </trkpt>
      <trkpt lat="44.55583" lon="5.59707">
        <ele>1312</ele>
        <time>2017-09-02T19:12:14Z</time>
      </trkpt>
      <trkpt lat="44.55637" lon="5.59774">
        <ele>1301</ele>
        <time>2017-09-02T19:14:14Z</time>
      </trkpt>
      <trkpt lat="44.55687" lon="5.59815">
        <ele>1293</ele>
        <time>2017-09-02T19:16:14Z</time>
      </trkpt>
      <trkpt lat="44.55762" lon="5.59891">
        <ele>1285</ele>
        <time>2017-09-02T19:18:14Z</time>
      </trkpt>
      <trkpt lat="44.55831" lon="5.59952">
        <ele>1285</ele>
        <time>2017-09-02T19:20:14Z</time>
      </trkpt>
      <trkpt lat="44.55883" lon="5.59907">
        <ele>1277</ele>
        <time>2017-09-02T19:22:14Z</time>
      </trkpt>
      <trkpt lat="44.55988" lon="5.59922">
        <ele>1283</ele>
        <time>2017-09-02T19:24:14Z</time>
      </trkpt>
      <trkpt lat="44.56045" lon="5.60013">
        <ele>1288</ele>
        <time>2017-09-02T19:26:14Z</time>
      </trkpt>
      <trkpt lat="44.5607" lon="5.60049">
        <ele>1286</ele>
        <time>2017-09-02T19:28:14Z</time>
      </trkpt>
      <trkpt lat="44.5614" lon="5.60091">
        <ele>1284</ele>
        <time>2017-09-02T19:30:14Z</time>
      </trkpt>
      <trkpt lat="44.56208" lon="5.60064">
        <ele>1281</ele>
        <time>2017-09-02T19:32:14Z</time>
      </trkpt>
      <trkpt lat="44.56308" lon="5.60042">
        <ele>1263</ele>
        <time>2017-09-02T19:34:14Z</time>
      </trkpt>
      <trkpt lat="44.56401" lon="5.60152">
        <ele>1266</ele>
        <time>2017-09-02T19:36:14Z</time>
      </trkpt>
      <trkpt lat="44.56502" lon="5.60222">
        <ele>1273</ele>
        <time>2017-09-02T19:38:14Z</time>
      </trkpt>
      <trkpt lat="44.56673" lon="5.60203">
        <ele>1256</ele>
        <time>2017-09-02T19:40:14Z</time>
      </trkpt>
      <trkpt lat="44.56713" lon="5.6016">
        <ele>1243</ele>
        <time>2017-09-02T19:42:14Z</time>
      </trkpt>
      <trkpt lat="44.568" lon="5.60122">
        <ele>1244</ele>
        <time>2017-09-02T19:44:14Z</time>
      </trkpt>
      <trkpt lat="44.56837" lon="5.60076">
        <ele>1239</ele>
        <time>2017-09-02T19:46:14Z</time>
      </trkpt>
      <trkpt lat="44.57103" lon="5.60059">
        <ele>1247</ele>
        <time>2017-09-02T19:48:14Z</time>
      </trkpt>
      <trkpt lat="44.57191" lon="5.60158">
        <ele>1257</ele>
        <time>2017-09-02T19:50:14Z</time>
      </trkpt>
      <trkpt lat="44.573" lon="5.60188">
        <ele>1264</ele>
        <time>2017-09-02T19:52:14Z</time>
      </trkpt>
      <trkpt lat="44.57468" lon="5.60218">
        <ele>1215</ele>
        <time>2017-09-02T19:54:14Z</time>
      </trkpt>
      <trkpt lat="44.57564" lon="5.60293">
        <ele>1190</ele>
        <time>2017-09-02T19:56:14Z</time>
      </trkpt>
      <trkpt lat="44.57688" lon="5.60362">
        <ele>1171</ele>
        <time>2017-09-02T19:58:14Z</time>
      </trkpt>
      <trkpt lat="44.57742" lon="5.6058">
        <ele>1201</ele>
        <time>2017-09-02T20:00:14Z</time>
      </trkpt>
      <trkpt lat="44.57821" lon="5.60481">
        <ele>1174</ele>
        <time>2017-09-02T20:02:14Z</time>
      </trkpt>
      <trkpt lat="44.57928" lon="5.60326">
        <ele>1163</ele>
        <time>2017-09-02T20:04:14Z</time>
      </trkpt>
      <trkpt lat="44.58057" lon="5.60288">
        <ele>1135</ele>
        <time>2017-09-02T20:06:14Z</time>
      </trkpt>
      <trkpt lat="44.58237" lon="5.60309">
        <ele>1112</ele>
        <time>2017-09-02T20:08:14Z</time>
      </trkpt>
      <trkpt lat="44.58381" lon="5.60215">
        <ele>1095</ele>
        <time>2017-09-02T20:10:14Z</time>
      </trkpt>
      <trkpt lat="44.58479" lon="5.60086">
        <ele>1069</ele>
        <time>2017-09-02T20:12:14Z</time>
      </trkpt>
      <trkpt lat="44.58491" lon="5.59966">
        <ele>1045</ele>
        <time>2017-09-02T20:14:14Z</time>
      </trkpt>
      <trkpt lat="44.58666" lon="5.59952">
        <ele>1042</ele>
        <time>2017-09-02T20:16:14Z</time>
      </trkpt>
      <trkpt lat="44.5872" lon="5.60139">
        <ele>1063</ele>
        <time>2017-09-02T20:18:14Z</time>
      </trkpt>
      <trkpt lat="44.5883" lon="5.60205">
        <ele>1069</ele>
        <time>2017-09-02T20:20:14Z</time>
      </trkpt>
      <trkpt lat="44.58995" lon="5.60263">
        <ele>1092</ele>
        <time>2017-09-02T20:22:14Z</time>
      </trkpt>
      <trkpt lat="44.59082" lon="5.60209">
        <ele>1099</ele>
        <time>2017-09-02T20:24:14Z</time>
      </trkpt>
      <trkpt lat="44.592" lon="5.60338">
        <ele>1094</ele>
        <time>2017-09-02T20:26:14Z</time>
      </trkpt>
      <trkpt lat="44.5927" lon="5.60355">
        <ele>1089</ele>
        <time>2017-09-02T20:28:14Z</time>
      </trkpt>
      <trkpt lat="44.59347" lon="5.60298">
        <ele>1088</ele>
        <time>2017-09-02T20:30:14Z</time>
      </trkpt>
      <trkpt lat="44.59326" lon="5.60197">
        <ele>1089</ele>
        <time>2017-09-02T20:32:14Z</time>
      </trkpt>
      <trkpt lat="44.59309" lon="5.60172">
        <ele>1088</ele>
        <time>2017-09-02T20:34:14Z</time>
      </trkpt>
      <trkpt lat="44.59313" lon="5.60146">
        <ele>1091</ele>
        <time>2017-09-02T20:36:14Z</time>
      </trkpt>
      <trkpt lat="44.59301" lon="5.60106">
        <ele>1091</ele>
        <time>2017-09-02T20:38:14Z</time>
      </trkpt>
      <trkpt lat="44.59327" lon="5.60062">
        <ele>1099</ele>
        <time>2017-09-02T20:40:14Z</time>
      </trkpt>
      <trkpt lat="44.59338" lon="5.60018">
        <ele>1102</ele>
        <time>2017-09-02T20:42:14Z</time>
      </trkpt>
      <trkpt lat="44.59348" lon="5.59952">
        <ele>1103</ele>
        <time>2017-09-02T20:44:14Z</time>
      </trkpt>
      <trkpt lat="44.59393" lon="5.59911">
        <ele>1120</ele>
        <time>2017-09-02T20:46:14Z</time>
      </trkpt>
      <trkpt lat="44.5939" lon="5.59861">
        <ele>1122</ele>
        <time>2017-09-02T20:48:14Z</time>
      </trkpt>
      <trkpt lat="44.59397" lon="5.59819">
        <ele>1128</ele>
        <time>2017-09-02T20:50:14Z</time>
      </trkpt>
      <trkpt lat="44.59393" lon="5.59738">
        <ele>1137</ele>
        <time>2017-09-02T20:52:14Z</time>
      </trkpt>
      <trkpt lat="44.59359" lon="5.59641">
        <ele>1135</ele>
        <time>2017-09-02T20:54:14Z</time>
      </trkpt>
      <trkpt lat="44.59383" lon="5.59619">
        <ele>1144</ele>
        <time>2017-09-02T20:56:14Z</time>
      </trkpt>
      <trkpt lat="44.59383" lon="5.59606">
        <ele>1144</ele>
        <time>2017-09-02T20:58:14Z</time>
      </trkpt>
      <trkpt lat="44.59383" lon="5.59606">
        <ele>1144</ele>
        <time>2017-09-02T21:00:14Z</time>
      </trkpt>
      <trkpt lat="44.59406" lon="5.5957">
        <ele>1154</ele>
        <time>2017-09-02T21:02:14Z</time>
      </trkpt>
      <trkpt lat="44.59407" lon="5.59572">
        <ele>1155</ele>
        <time>2017-09-02T21:04:14Z</time>
      </trkpt>
      <trkpt lat="44.59411" lon="5.59521">
        <ele>1155</ele>
        <time>2017-09-02T21:06:14Z</time>
      </trkpt>
      <trkpt lat="44.59425" lon="5.59426">
        <ele>1152</ele>
        <time>2017-09-02T21:08:14Z</time>
      </trkpt>
      <trkpt lat="44.59425" lon="5.59426">
        <ele>1152</ele>
        <time>2017-09-02T21:10:14Z</time>
      </trkpt>
      <trkpt lat="44.59503" lon="5.59267">
        <ele>1163</ele>
        <time>2017-09-02T21:12:14Z</time>
      </trkpt>
      <trkpt lat="44.59542" lon="5.59218">
        <ele>1162</ele>
        <time>2017-09-02T21:14:14Z</time>
      </trkpt>
      <trkpt lat="44.59627" lon="5.5925">
        <ele>1182</ele>
        <time>2017-09-02T21:16:14Z</time>
      </trkpt>
      <trkpt lat="44.59706" lon="5.59319">
        <ele>1201</ele>
        <time>2017-09-02T21:18:14Z</time>
      </trkpt>
      <trkpt lat="44.59722" lon="5.59346">
        <ele>1207</ele>
        <time>2017-09-02T21:20:14Z</time>
      </trkpt>
      <trkpt lat="44.59789" lon="5.59339">
        <ele>1218</ele>
        <time>2017-09-02T21:22:14Z</time>
      </trkpt>
      <trkpt lat="44.59831" lon="5.59324">
        <ele>1222</ele>
        <time>2017-09-02T21:24:14Z</time>
      </trkpt>
      <trkpt lat="44.59853" lon="5.59293">
        <ele>1222</ele>
        <time>2017-09-02T21:26:14Z</time>
      </trkpt>
      <trkpt lat="44.59915" lon="5.59285">
        <ele>1236</ele>
        <time>2017-09-02T21:28:14Z</time>
      </trkpt>
      <trkpt lat="44.59973" lon="5.59299">
        <ele>1250</ele>
        <time>2017-09-02T21:30:14Z</time>
      </trkpt>
      <trkpt lat="44.60017" lon="5.59295">
        <ele>1257</ele>
        <time>2017-09-02T21:32:14Z</time>
      </trkpt>
      <trkpt lat="44.60095" lon="5.5934">
        <ele>1274</ele>
        <time>2017-09-02T21:34:14Z</time>
      </trkpt>
      <trkpt lat="44.60147" lon="5.5929">
        <ele>1279</ele>
        <time>2017-09-02T21:36:14Z</time>
      </trkpt>
      <trkpt lat="44.60198" lon="5.59253">
        <ele>1287</ele>
        <time>2017-09-02T21:38:14Z</time>
      </trkpt>
      <trkpt lat="44.60246" lon="5.5923">
        <ele>1298</ele>
        <time>2017-09-02T21:40:14Z</time>
      </trkpt>
      <trkpt lat="44.60271" lon="5.59241">
        <ele>1307</ele>
        <time>2017-09-02T21:42:14Z</time>
      </trkpt>
      <trkpt lat="44.60311" lon="5.5919">
        <ele>1312</ele>
        <time>2017-09-02T21:44:14Z</time>
      </trkpt>
      <trkpt lat="44.60453" lon="5.58984">
        <ele>1340</ele>
        <time>2017-09-02T21:46:14Z</time>
      </trkpt>
      <trkpt lat="44.60478" lon="5.5889">
        <ele>1351</ele>
        <time>2017-09-02T21:48:14Z</time>
      </trkpt>
      <trkpt lat="44.60515" lon="5.58917">
        <ele>1347</ele>
        <time>2017-09-02T21:50:14Z</time>
      </trkpt>
      <trkpt lat="44.60533" lon="5.58952">
        <ele>1344</ele>
        <time>2017-09-02T21:52:14Z</time>
      </trkpt>
      <trkpt lat="44.60568" lon="5.58874">
        <ele>1336</ele>
        <time>2017-09-02T21:54:14Z</time>
      </trkpt>
      <trkpt lat="44.60604" lon="5.58825">
        <ele>1322</ele>
        <time>2017-09-02T21:56:14Z</time>
      </trkpt>
      <trkpt lat="44.60646" lon="5.58829">
        <ele>1304</ele>
        <time>2017-09-02T21:58:14Z</time>
      </trkpt>
      <trkpt lat="44.60643" lon="5.58799">
        <ele>1303</ele>
        <time>2017-09-02T22:00:14Z</time>
      </trkpt>
      <trkpt lat="44.6062" lon="5.58747">
        <ele>1312</ele>
        <time>2017-09-02T22:02:14Z</time>
      </trkpt>
      <trkpt lat="44.60616" lon="5.58694">
        <ele>1314</ele>
        <time>2017-09-02T22:04:14Z</time>
      </trkpt>
      <trkpt lat="44.60632" lon="5.58652">
        <ele>1306</ele>
        <time>2017-09-02T22:06:14Z</time>
      </trkpt>
      <trkpt lat="44.60654" lon="5.58601">
        <ele>1299</ele>
        <time>2017-09-02T22:08:14Z</time>
      </trkpt>
      <trkpt lat="44.60661" lon="5.58544">
        <ele>1302</ele>
        <time>2017-09-02T22:10:14Z</time>
      </trkpt>
      <trkpt lat="44.60783" lon="5.58398">
        <ele>1286</ele>
        <time>2017-09-02T22:12:14Z</time>
      </trkpt>
      <trkpt lat="44.60908" lon="5.58332">
        <ele>1258</ele>
        <time>2017-09-02T22:14:14Z</time>
      </trkpt>
      <trkpt lat="44.61016" lon="5.58284">
        <ele>1244</ele>
        <time>2017-09-02T22:16:14Z</time>
      </trkpt>
      <trkpt lat="44.61083" lon="5.5833">
        <ele>1221</ele>
        <time>2017-09-02T22:18:14Z</time>
      </trkpt>
      <trkpt lat="44.61158" lon="5.58221">
        <ele>1210</ele>
        <time>2017-09-02T22:20:14Z</time>
      </trkpt>
      <trkpt lat="44.61132" lon="5.58166">
        <ele>1222</ele>
        <time>2017-09-02T22:22:14Z</time>
      </trkpt>
      <trkpt lat="44.61106" lon="5.58046">
        <ele>1235</ele>
        <time>2017-09-02T22:24:14Z</time>
      </trkpt>
      <trkpt lat="44.61143" lon="5.57953">
        <ele>1227</ele>
        <time>2017-09-02T22:26:14Z</time>
      </trkpt>
      <trkpt lat="44.61209" lon="5.57913">
        <ele>1213</ele>
        <time>2017-09-02T22:28:14Z</time>
      </trkpt>
      <trkpt lat="44.6126" lon="5.57851">
        <ele>1212</ele>
        <time>2017-09-02T22:30:14Z</time>
      </trkpt>
      <trkpt lat="44.61303" lon="5.57816">
        <ele>1203</ele>
        <time>2017-09-02T22:32:14Z</time>
      </trkpt>
      <trkpt lat="44.61269" lon="5.5772">
        <ele>1216</ele>
        <time>2017-09-02T22:34:14Z</time>
      </trkpt>
      <trkpt lat="44.6126" lon="5.57624">
        <ele>1224</ele>
        <time>2017-09-02T22:36:14Z</time>
      </trkpt>
      <trkpt lat="44.61386" lon="5.57527">
        <ele>1196</ele>
        <time>2017-09-02T22:38:14Z</time>
      </trkpt>
      <trkpt lat="44.61486" lon="5.57321">
        <ele>1198</ele>
        <time>2017-09-02T22:40:14Z</time>
      </trkpt>
      <trkpt lat="44.61526" lon="5.57058">
        <ele>1187</ele>
        <time>2017-09-02T22:42:14Z</time>
      </trkpt>
      <trkpt lat="44.61486" lon="5.56982">
        <ele>1197</ele>
        <time>2017-09-02T22:44:14Z</time>
      </trkpt>
      <trkpt lat="44.6149" lon="5.56949">
        <ele>1193</ele>
        <time>2017-09-02T22:46:14Z</time>
      </trkpt>
      <trkpt lat="44.61475" lon="5.56885">
        <ele>1202</ele>
        <time>2017-09-02T22:48:14Z</time>
      </trkpt>
      <trkpt lat="44.61483" lon="5.56871">
        <ele>1200</ele>
        <time>2017-09-02T22:50:14Z</time>
      </trkpt>
      <trkpt lat="44.61573" lon="5.56829">
        <ele>1192</ele>
        <time>2017-09-02T22:52:14Z</time>
      </trkpt>
      <trkpt lat="44.61622" lon="5.56841">
        <ele>1180</ele>
        <time>2017-09-02T22:54:14Z</time>
      </trkpt>
      <trkpt lat="44.61647" lon="5.56794">
        <ele>1182</ele>
        <time>2017-09-02T22:56:14Z</time>
      </trkpt>
      <trkpt lat="44.61668" lon="5.56681">
        <ele>1191</ele>
        <time>2017-09-02T22:58:14Z</time>
      </trkpt>
      <trkpt lat="44.61698" lon="5.56644">
        <ele>1190</ele>
        <time>2017-09-02T23:00:14Z</time>
      </trkpt>
      <trkpt lat="44.61749" lon="5.56551">
        <ele>1185</ele>
        <time>2017-09-02T23:02:14Z</time>
      </trkpt>
      <trkpt lat="44.61764" lon="5.56539">
        <ele>1187</ele>
        <time>2017-09-02T23:04:14Z</time>
      </trkpt>
      <trkpt lat="44.61795" lon="5.56474">
        <ele>1185</ele>
        <time>2017-09-02T23:06:14Z</time>
      </trkpt>
      <trkpt lat="44.61771" lon="5.56466">
        <ele>1182</ele>
        <time>2017-09-02T23:08:14Z</time>
      </trkpt>
      <trkpt lat="44.61744" lon="5.56351">
        <ele>1168</ele>
        <time>2017-09-02T23:10:14Z</time>
      </trkpt>
      <trkpt lat="44.61709" lon="5.56324">
        <ele>1177</ele>
        <time>2017-09-02T23:12:14Z</time>
      </trkpt>
      <trkpt lat="44.61708" lon="5.563">
        <ele>1177</ele>
        <time>2017-09-02T23:14:14Z</time>
      </trkpt>
      <trkpt lat="44.61748" lon="5.56213">
        <ele>1156</ele>
        <time>2017-09-02T23:16:14Z</time>
      </trkpt>
      <trkpt lat="44.61767" lon="5.56079">
        <ele>1146</ele>
        <time>2017-09-02T23:18:14Z</time>
      </trkpt>
      <trkpt lat="44.61784" lon="5.5594">
        <ele>1140</ele>
        <time>2017-09-02T23:20:14Z</time>
      </trkpt>
      <trkpt lat="44.61799" lon="5.55804">
        <ele>1127</ele>
        <time>2017-09-02T23:22:14Z</time>
      </trkpt>
      <trkpt lat="44.61787" lon="5.55749">
        <ele>1128</ele>
        <time>2017-09-02T23:24:14Z</time>
      </trkpt>
      <trkpt lat="44.61819" lon="5.55715">
        <ele>1115</ele>
        <time>2017-09-02T23:26:14Z</time>
      </trkpt>
      <trkpt lat="44.61828" lon="5.55667">
        <ele>1113</ele>
        <time>2017-09-02T23:28:14Z</time>
      </trkpt>
      <trkpt lat="44.61888" lon="5.55593">
        <ele>1095</ele>
        <time>2017-09-02T23:30:14Z</time>
      </trkpt>
      <trkpt lat="44.61901" lon="5.55509">
        <ele>1094</ele>
        <time>2017-09-02T23:32:14Z</time>
      </trkpt>
      <trkpt lat="44.61949" lon="5.55384">
        <ele>1069</ele>
        <time>2017-09-02T23:34:14Z</time>
      </trkpt>
      <trkpt lat="44.61972" lon="5.55344">
        <ele>1059</ele>
        <time>2017-09-02T23:36:14Z</time>
      </trkpt>
      <trkpt lat="44.6193" lon="5.55303">
        <ele>1066</ele>
        <time>2017-09-02T23:38:14Z</time>
      </trkpt>
      <trkpt lat="44.61926" lon="5.55242">
        <ele>1059</ele>
        <time>2017-09-02T23:40:14Z</time>
      </trkpt>
      <trkpt lat="44.61945" lon="5.55075">
        <ele>1046</ele>
        <time>2017-09-02T23:42:14Z</time>
      </trkpt>
      <trkpt lat="44.61834" lon="5.54764">
        <ele>1076</ele>
        <time>2017-09-02T23:44:14Z</time>
      </trkpt>
      <trkpt lat="44.61794" lon="5.54804">
        <ele>1088</ele>
        <time>2017-09-02T23:46:14Z</time>
      </trkpt>
      <trkpt lat="44.61781" lon="5.54706">
        <ele>1095</ele>
        <time>2017-09-02T23:48:14Z</time>
      </trkpt>
      <trkpt lat="44.61726" lon="5.54583">
        <ele>1113</ele>
        <time>2017-09-02T23:50:14Z</time>
      </trkpt>
      <trkpt lat="44.61689" lon="5.54717">
        <ele>1119</ele>
        <time>2017-09-02T23:52:14Z</time>
      </trkpt>
      <trkpt lat="44.61682" lon="5.54768">
        <ele>1120</ele>
        <time>2017-09-02T23:54:14Z</time>
      </trkpt>
      <trkpt lat="44.6165" lon="5.54811">
        <ele>1134</ele>
        <time>2017-09-02T23:56:14Z</time>
      </trkpt>
      <trkpt lat="44.61624" lon="5.54726">
        <ele>1143</ele>
        <time>2017-09-02T23:58:14Z</time>
      </trkpt>
      <trkpt lat="44.61602" lon="5.54639">
        <ele>1155</ele>
        <time>2017-09-03T00:00:14Z</time>
      </trkpt>
      <trkpt lat="44.61544" lon="5.54558">
        <ele>1175</ele>
        <time>2017-09-03T00:02:14Z</time>
      </trkpt>
      <trkpt lat="44.61391" lon="5.54264">
        <ele>1216</ele>
        <time>2017-09-03T00:04:14Z</time>
      </trkpt>
      <trkpt lat="44.61398" lon="5.54344">
        <ele>1222</ele>
        <time>2017-09-03T00:06:14Z</time>
      </trkpt>
      <trkpt lat="44.61322" lon="5.54009">
        <ele>1265</ele>
        <time>2017-09-03T00:08:14Z</time>
      </trkpt>
      <trkpt lat="44.61304" lon="5.53877">
        <ele>1280</ele>
        <time>2017-09-03T00:10:14Z</time>
      </trkpt>
      <trkpt lat="44.61271" lon="5.53722">
        <ele>1271</ele>
        <time>2017-09-03T00:12:14Z</time>
      </trkpt>
      <trkpt lat="44.61183" lon="5.53575">
        <ele>1273</ele>
        <time>2017-09-03T00:14:14Z</time>
      </trkpt>
      <trkpt lat="44.61158" lon="5.53527">
        <ele>1270</ele>
        <time>2017-09-03T00:16:14Z</time>
      </trkpt>
      <trkpt lat="44.61118" lon="5.53511">
        <ele>1278</ele>
        <time>2017-09-03T00:18:14Z</time>
      </trkpt>
      <trkpt lat="44.61076" lon="5.53415">
        <ele>1273</ele>
        <time>2017-09-03T00:20:14Z</time>
      </trkpt>
      <trkpt lat="44.61026" lon="5.53303">
        <ele>1270</ele>
        <time>2017-09-03T00:22:14Z</time>
      </trkpt>
      <trkpt lat="44.60966" lon="5.53193">
        <ele>1265</ele>
        <time>2017-09-03T00:24:14Z</time>
      </trkpt>
      <trkpt lat="44.60948" lon="5.5312">
        <ele>1257</ele>
        <time>2017-09-03T00:26:14Z</time>
      </trkpt>
      <trkpt lat="44.60742" lon="5.52751">
        <ele>1250</ele>
        <time>2017-09-03T00:28:14Z</time>
      </trkpt>
      <trkpt lat="44.60638" lon="5.52642">
        <ele>1242</ele>
        <time>2017-09-03T00:30:14Z</time>
      </trkpt>
      <trkpt lat="44.60588" lon="5.52623">
        <ele>1247</ele>
        <time>2017-09-03T00:32:14Z</time>
      </trkpt>
      <trkpt lat="44.60532" lon="5.52606">
        <ele>1255</ele>
        <time>2017-09-03T00:34:14Z</time>
      </trkpt>
      <trkpt lat="44.60465" lon="5.52536">
        <ele>1242</ele>
        <time>2017-09-03T00:36:14Z</time>
      </trkpt>
      <trkpt lat="44.60428" lon="5.52494">
        <ele>1234</ele>
        <time>2017-09-03T00:38:14Z</time>
      </trkpt>
      <trkpt lat="44.60292" lon="5.52773">
        <ele>1190</ele>
        <time>2017-09-03T00:40:14Z</time>
      </trkpt>
      <trkpt lat="44.60267" lon="5.52644">
        <ele>1164</ele>
        <time>2017-09-03T00:42:14Z</time>
      </trkpt>
      <trkpt lat="44.60177" lon="5.52777">
        <ele>1130</ele>
        <time>2017-09-03T00:44:14Z</time>
      </trkpt>
      <trkpt lat="44.6013" lon="5.52804">
        <ele>1116</ele>
        <time>2017-09-03T00:46:14Z</time>
      </trkpt>
      <trkpt lat="44.60081" lon="5.52804">
        <ele>1101</ele>
        <time>2017-09-03T00:48:14Z</time>
      </trkpt>
      <trkpt lat="44.60024" lon="5.52828">
        <ele>1088</ele>
        <time>2017-09-03T00:50:14Z</time>
      </trkpt>
      <trkpt lat="44.6" lon="5.52814">
        <ele>1080</ele>
        <time>2017-09-03T00:52:14Z</time>
      </trkpt>
      <trkpt lat="44.59981" lon="5.52824">
        <ele>1075</ele>
        <time>2017-09-03T00:54:14Z</time>
      </trkpt>
      <trkpt lat="44.59968" lon="5.52778">
        <ele>1069</ele>
        <time>2017-09-03T00:56:14Z</time>
      </trkpt>
      <trkpt lat="44.59934" lon="5.52835">
        <ele>1062</ele>
        <time>2017-09-03T00:58:14Z</time>
      </trkpt>
      <trkpt lat="44.59897" lon="5.52862">
        <ele>1056</ele>
        <time>2017-09-03T01:00:14Z</time>
      </trkpt>
      <trkpt lat="44.59862" lon="5.52853">
        <ele>1049</ele>
        <time>2017-09-03T01:02:14Z</time>
      </trkpt>
      <trkpt lat="44.59834" lon="5.52847">
        <ele>1044</ele>
        <time>2017-09-03T01:04:14Z</time>
      </trkpt>
      <trkpt lat="44.59811" lon="5.52847">
        <ele>1042</ele>
        <time>2017-09-03T01:06:14Z</time>
      </trkpt>
      <trkpt lat="44.59797" lon="5.52818">
        <ele>1039</ele>
        <time>2017-09-03T01:08:14Z</time>
      </trkpt>
      <trkpt lat="44.59769" lon="5.52804">
        <ele>1035</ele>
        <time>2017-09-03T01:10:14Z</time>
      </trkpt>
      <trkpt lat="44.5974" lon="5.52869">
        <ele>1033</ele>
        <time>2017-09-03T01:12:14Z</time>
      </trkpt>
      <trkpt lat="44.59677" lon="5.52944">
        <ele>1024</ele>
        <time>2017-09-03T01:14:14Z</time>
      </trkpt>
      <trkpt lat="44.5965" lon="5.52956">
        <ele>1021</ele>
        <time>2017-09-03T01:16:14Z</time>
      </trkpt>
      <trkpt lat="44.59469" lon="5.53074">
        <ele>1013</ele>
        <time>2017-09-03T01:18:14Z</time>
      </trkpt>
      <trkpt lat="44.59322" lon="5.53408">
        <ele>1022</ele>
        <time>2017-09-03T01:20:14Z</time>
      </trkpt>
      <trkpt lat="44.59158" lon="5.53736">
        <ele>1011</ele>
        <time>2017-09-03T01:22:14Z</time>
      </trkpt>
      <trkpt lat="44.59161" lon="5.53806">
        <ele>1007</ele>
        <time>2017-09-03T01:24:14Z</time>
      </trkpt>
      <trkpt lat="44.59129" lon="5.53818">
        <ele>1004</ele>
        <time>2017-09-03T01:26:14Z</time>
      </trkpt>
      <trkpt lat="44.59086" lon="5.53794">
        <ele>1002</ele>
        <time>2017-09-03T01:28:14Z</time>
      </trkpt>
      <trkpt lat="44.59057" lon="5.53809">
        <ele>999</ele>
        <time>2017-09-03T01:30:14Z</time>
      </trkpt>
      <trkpt lat="44.59003" lon="5.53861">
        <ele>993</ele>
        <time>2017-09-03T01:32:14Z</time>
      </trkpt>
      <trkpt lat="44.58958" lon="5.53952">
        <ele>985</ele>
        <time>2017-09-03T01:34:14Z</time>
      </trkpt>
      <trkpt lat="44.58911" lon="5.54009">
        <ele>981</ele>
        <time>2017-09-03T01:36:14Z</time>
      </trkpt>
      <trkpt lat="44.58805" lon="5.54083">
        <ele>976</ele>
        <time>2017-09-03T01:38:14Z</time>
      </trkpt>
      <trkpt lat="44.58621" lon="5.54244">
        <ele>975</ele>
        <time>2017-09-03T01:40:14Z</time>
      </trkpt>
      <trkpt lat="44.58612" lon="5.5429">
        <ele>975</ele>
        <time>2017-09-03T01:42:14Z</time>
      </trkpt>
      <trkpt lat="44.58547" lon="5.5435">
        <ele>974</ele>
        <time>2017-09-03T01:44:14Z</time>
      </trkpt>
      <trkpt lat="44.58481" lon="5.54419">
        <ele>971</ele>
        <time>2017-09-03T01:46:14Z</time>
      </trkpt>
      <trkpt lat="44.58385" lon="5.54547">
        <ele>965</ele>
        <time>2017-09-03T01:48:14Z</time>
      </trkpt>
      <trkpt lat="44.58384" lon="5.5461">
        <ele>965</ele>
        <time>2017-09-03T01:50:14Z</time>
      </trkpt>
      <trkpt lat="44.58326" lon="5.54576">
        <ele>964</ele>
        <time>2017-09-03T01:52:14Z</time>
      </trkpt>
      <trkpt lat="44.58248" lon="5.54624">
        <ele>960</ele>
        <time>2017-09-03T01:54:14Z</time>
      </trkpt>
      <trkpt lat="44.58174" lon="5.54702">
        <ele>958</ele>
        <time>2017-09-03T01:56:14Z</time>
      </trkpt>
      <trkpt lat="44.58116" lon="5.54738">
        <ele>954</ele>
        <time>2017-09-03T01:58:14Z</time>
      </trkpt>
      <trkpt lat="44.58108" lon="5.54789">
        <ele>952</ele>
        <time>2017-09-03T02:00:14Z</time>
      </trkpt>
      <trkpt lat="44.58047" lon="5.54798">
        <ele>950</ele>
        <time>2017-09-03T02:02:14Z</time>
      </trkpt>
      <trkpt lat="44.57986" lon="5.55021">
        <ele>928</ele>
        <time>2017-09-03T02:04:14Z</time>
      </trkpt>
      <trkpt lat="44.57924" lon="5.5512">
        <ele>918</ele>
        <time>2017-09-03T02:06:14Z</time>
      </trkpt>
      <trkpt lat="44.57812" lon="5.55271">
        <ele>899</ele>
        <time>2017-09-03T02:08:14Z</time>
      </trkpt>
      <trkpt lat="44.57764" lon="5.5529">
        <ele>896</ele>
        <time>2017-09-03T02:10:14Z</time>
      </trkpt>
      <trkpt lat="44.57723" lon="5.55332">
        <ele>890</ele>
        <time>2017-09-03T02:12:14Z</time>
      </trkpt>
      <trkpt lat="44.57583" lon="5.55502">
        <ele>859</ele>
        <time>2017-09-03T02:14:14Z</time>
      </trkpt>
      <trkpt lat="44.57488" lon="5.55609">
        <ele>827</ele>
        <time>2017-09-03T02:16:14Z</time>
      </trkpt>
      <trkpt lat="44.57431" lon="5.55607">
        <ele>805</ele>
        <time>2017-09-03T02:18:14Z</time>
      </trkpt>
      <trkpt lat="44.57427" lon="5.55641">
        <ele>801</ele>
        <time>2017-09-03T02:20:14Z</time>
      </trkpt>
      <trkpt lat="44.57423" lon="5.5572">
        <ele>795</ele>
        <time>2017-09-03T02:22:14Z</time>
      </trkpt>
      <trkpt lat="44.57397" lon="5.55779">
        <ele>780</ele>
        <time>2017-09-03T02:24:14Z</time>
      </trkpt>
      <trkpt lat="44.57376" lon="5.55784">
        <ele>772</ele>
        <time>2017-09-03T02:26:14Z</time>
      </trkpt>
      <trkpt lat="44.57344" lon="5.55798">
        <ele>760</ele>
        <time>2017-09-03T02:28:14Z</time>
      </trkpt>
      <trkpt lat="44.57298" lon="5.55875">
        <ele>750</ele>
        <time>2017-09-03T02:30:14Z</time>
      </trkpt>
      <trkpt lat="44.57184" lon="5.55836">
        <ele>743</ele>
        <time>2017-09-03T02:32:14Z</time>
      </trkpt>
      <trkpt lat="44.57038" lon="5.55765">
        <ele>741</ele>
        <time>2017-09-03T02:34:14Z</time>
      </trkpt>
      <trkpt lat="44.57034" lon="5.55831">
        <ele>739</ele>
        <time>2017-09-03T02:36:14Z</time>
      </trkpt>
      <trkpt lat="44.57039" lon="5.55934">
        <ele>741</ele>
        <time>2017-09-03T02:38:14Z</time>
      </trkpt>
      <trkpt lat="44.57034" lon="5.56043">
        <ele>748</ele>
        <time>2017-09-03T02:40:14Z</time>
      </trkpt>
      <trkpt lat="44.56991" lon="5.56253">
        <ele>756</ele>
        <time>2017-09-03T02:42:14Z</time>
      </trkpt>
      <trkpt lat="44.56947" lon="5.56422">
        <ele>759</ele>
        <time>2017-09-03T02:44:14Z</time>
      </trkpt>
      <trkpt lat="44.56878" lon="5.56557">
        <ele>764</ele>
        <time>2017-09-03T02:46:14Z</time>
      </trkpt>
      <trkpt lat="44.56818" lon="5.56766">
        <ele>772</ele>
        <time>2017-09-03T02:48:14Z</time>
      </trkpt>
      <trkpt lat="44.56745" lon="5.56885">
        <ele>774</ele>
        <time>2017-09-03T02:50:14Z</time>
      </trkpt>
      <trkpt lat="44.56709" lon="5.56981">
        <ele>778</ele>
        <time>2017-09-03T02:52:14Z</time>
      </trkpt>
      <trkpt lat="44.56681" lon="5.57101">
        <ele>781</ele>
        <time>2017-09-03T02:54:14Z</time>
      </trkpt>
      <trkpt lat="44.56668" lon="5.57161">
        <ele>784</ele>
        <time>2017-09-03T02:56:14Z</time>
      </trkpt>
      <trkpt lat="44.56547" lon="5.57262">
        <ele>799</ele>
        <time>2017-09-03T02:58:14Z</time>
      </trkpt>
      <trkpt lat="44.56323" lon="5.5772">
        <ele>818</ele>
        <time>2017-09-03T03:00:14Z</time>
      </trkpt>
      <trkpt lat="44.56273" lon="5.57951">
        <ele>836</ele>
        <time>2017-09-03T03:02:14Z</time>
      </trkpt>
      <trkpt lat="44.56192" lon="5.58046">
        <ele>845</ele>
        <time>2017-09-03T03:04:14Z</time>
      </trkpt>
      <trkpt lat="44.56138" lon="5.58072">
        <ele>858</ele>
        <time>2017-09-03T03:06:14Z</time>
      </trkpt>
      <trkpt lat="44.56137" lon="5.58201">
        <ele>856</ele>
        <time>2017-09-03T03:08:14Z</time>
      </trkpt>
      <trkpt lat="44.56074" lon="5.58349">
        <ele>856</ele>
        <time>2017-09-03T03:10:14Z</time>
      </trkpt>
      <trkpt lat="44.56023" lon="5.58484">
        <ele>865</ele>
        <time>2017-09-03T03:12:14Z</time>
      </trkpt>
      <trkpt lat="44.56037" lon="5.58677">
        <ele>894</ele>
        <time>2017-09-03T03:14:14Z</time>
      </trkpt>
      <trkpt lat="44.55898" lon="5.58734">
        <ele>935</ele>
        <time>2017-09-03T03:16:14Z</time>
      </trkpt>
      <trkpt lat="44.55938" lon="5.58863">
        <ele>970</ele>
        <time>2017-09-03T03:18:14Z</time>
      </trkpt>
      <trkpt lat="44.55856" lon="5.5882">
        <ele>971</ele>
        <time>2017-09-03T03:20:14Z</time>
      </trkpt>
      <trkpt lat="44.55752" lon="5.58854">
        <ele>983</ele>
        <time>2017-09-03T03:22:14Z</time>
      </trkpt>
      <trkpt lat="44.55712" lon="5.5891">
        <ele>1010</ele>
        <time>2017-09-03T03:24:14Z</time>
      </trkpt>
      <trkpt lat="44.55556" lon="5.58936">
        <ele>1031</ele>
        <time>2017-09-03T03:26:14Z</time>
      </trkpt>
      <trkpt lat="44.55415" lon="5.58927">
        <ele>1057</ele>
        <time>2017-09-03T03:28:14Z</time>
      </trkpt>
      <trkpt lat="44.55437" lon="5.58992">
        <ele>1075</ele>
        <time>2017-09-03T03:30:14Z</time>
      </trkpt>
      <trkpt lat="44.55378" lon="5.58989">
        <ele>1077</ele>
        <time>2017-09-03T03:32:14Z</time>
      </trkpt>
      <trkpt lat="44.55458" lon="5.59058">
        <ele>1091</ele>
        <time>2017-09-03T03:34:14Z</time>
      </trkpt>
      <trkpt lat="44.55386" lon="5.59057">
        <ele>1101</ele>
        <time>2017-09-03T03:36:14Z</time>
      </trkpt>
      <trkpt lat="44.55296" lon="5.5911">
        <ele>1114</ele>
        <time>2017-09-03T03:38:14Z</time>
      </trkpt>
      <trkpt lat="44.55286" lon="5.59131">
        <ele>1119</ele>
        <time>2017-09-03T03:40:14Z</time>
      </trkpt>
      <trkpt lat="44.55243" lon="5.59163">
        <ele>1118</ele>
        <time>2017-09-03T03:42:14Z</time>
      </trkpt>
      <trkpt lat="44.55225" lon="5.5922">
        <ele>1121</ele>
        <time>2017-09-03T03:44:14Z</time>
      </trkpt>
      <trkpt lat="44.5522" lon="5.59318">
        <ele>1139</ele>
        <time>2017-09-03T03:46:14Z</time>
      </trkpt>
      <trkpt lat="44.55178" lon="5.59352">
        <ele>1132</ele>
        <time>2017-09-03T03:48:14Z</time>
      </trkpt>
      <trkpt lat="44.5515" lon="5.59391">
        <ele>1139</ele>
        <time>2017-09-03T03:50:14Z</time>
      </trkpt>
      <trkpt lat="44.55097" lon="5.59407">
        <ele>1134</ele>
        <time>2017-09-03T03:52:14Z</time>
      </trkpt>
      <trkpt lat="44.55069" lon="5.59449">
        <ele>1139</ele>
        <time>2017-09-03T03:54:14Z</time>
      </trkpt>
      <trkpt lat="44.55038" lon="5.59507">
        <ele>1144</ele>
        <time>2017-09-03T03:56:14Z</time>
      </trkpt>
      <trkpt lat="44.54985" lon="5.59599">
        <ele>1154</ele>
        <time>2017-09-03T03:58:14Z</time>
      </trkpt>
      <trkpt lat="44.54951" lon="5.5964">
        <ele>1158</ele>
        <time>2017-09-03T04:00:14Z</time>
      </trkpt>
      <trkpt lat="44.54946" lon="5.59807">
        <ele>1180</ele>
        <time>2017-09-03T04:02:14Z</time>
      </trkpt>
    </trkseg>
  </trk>
</gpx>